createdAt,value
2023-01-17T07:00:47.232Z,22.98
2023-01-17T07:09:08.810Z,25.63
2023-01-17T07:11:35.827Z,25.73
2023-01-17T07:14:02.825Z,26.92
2023-01-17T07:16:29.980Z,28.70
2023-01-17T07:18:58.225Z,31.88
2023-01-17T07:21:25.179Z,29.30
2023-01-17T07:23:52.072Z,30.10
2023-01-17T07:26:19.099Z,29.73
2023-01-17T07:28:45.879Z,28.60
2023-01-17T07:31:13.136Z,28.60
2023-01-17T07:33:40.128Z,26.35
2023-01-17T07:36:08.058Z,25.50
2023-01-17T07:38:35.621Z,25.95
2023-01-17T07:41:02.850Z,22.10
2023-01-17T07:43:30.189Z,21.88
2023-01-17T07:45:57.143Z,21.50
2023-01-17T07:48:24.978Z,21.95
2023-01-17T07:53:30.428Z,25.73
2023-01-17T08:12:02.107Z,37.03
2023-01-17T08:31:17.992Z,32.92
2023-01-17T08:33:45.023Z,31.83
2023-01-17T08:38:43.207Z,29.25
2023-01-17T08:41:13.652Z,29.80
2023-01-17T08:43:41.034Z,30.60
2023-01-17T08:46:08.109Z,32.00
2023-01-17T08:48:35.404Z,35.92
2023-01-17T08:51:02.956Z,36.28
2023-01-17T08:53:30.527Z,38.13
2023-01-17T08:55:59.697Z,45.17
2023-01-17T08:58:31.499Z,46.55
2023-01-17T15:04:55.802Z,4.78
2023-01-17T19:37:47.310Z,4.57
2023-01-17T19:40:16.358Z,5.38
2023-01-17T19:42:43.937Z,5.72
2023-01-17T19:47:54.876Z,5.40
2023-01-17T19:55:47.754Z,4.22
2023-01-17T20:01:01.544Z,4.68
2023-01-17T20:06:08.100Z,4.18
2023-01-17T20:08:36.285Z,4.35
2023-01-17T20:11:08.830Z,4.13
2023-01-17T20:13:35.779Z,4.28
2023-01-17T20:16:08.618Z,3.50
2023-01-17T20:18:36.508Z,3.92
2023-01-17T20:21:11.126Z,4.55
2023-01-17T20:23:43.160Z,3.60
2023-01-17T20:26:11.993Z,3.75
2023-01-17T20:28:40.891Z,4.03
2023-01-17T20:31:19.815Z,4.97
2023-01-17T20:33:47.840Z,4.35
2023-01-17T20:36:16.346Z,4.43
2023-01-17T20:38:44.524Z,4.05
2023-01-17T20:41:24.798Z,7.20
2023-01-17T20:43:54.222Z,5.78
2023-01-17T20:46:22.868Z,5.88
2023-01-17T20:48:51.977Z,5.78
2023-01-17T20:51:19.790Z,7.53
2023-01-17T20:53:50.956Z,7.72
2023-01-17T20:56:18.996Z,8.60
2023-01-17T20:58:45.974Z,7.10
2023-01-17T21:01:19.567Z,5.65
2023-01-17T21:03:49.439Z,5.30
2023-01-17T21:06:16.302Z,5.25
2023-01-17T21:08:44.681Z,6.15
2023-01-17T21:11:15.396Z,5.50
2023-01-17T21:13:43.028Z,5.75
2023-01-17T21:16:12.829Z,5.90
2023-01-17T21:18:40.530Z,5.65
2023-01-17T21:21:13.066Z,7.30
2023-01-17T21:26:16.783Z,5.40
2023-01-17T21:28:45.346Z,4.68
2023-01-17T21:31:25.942Z,4.20
2023-01-17T21:33:56.889Z,3.20
2023-01-17T21:36:27.436Z,2.50
2023-01-17T21:38:57.225Z,2.40
2023-01-17T21:41:26.953Z,2.55
2023-01-17T21:43:57.975Z,2.40
2023-01-17T21:46:25.940Z,2.70
2023-01-17T21:48:53.056Z,2.17
2023-01-17T21:51:21.913Z,2.30
2023-01-17T21:53:48.960Z,2.30
2023-01-17T21:56:34.151Z,3.20
2023-01-17T21:59:01.851Z,2.38
2023-01-17T22:01:32.345Z,2.35
2023-01-17T22:04:01.739Z,2.92
2023-01-17T22:06:31.199Z,3.33
2023-01-17T22:08:58.850Z,2.70
2023-01-17T22:11:27.245Z,2.75
2023-01-17T22:13:54.107Z,2.80
2023-01-17T22:16:24.180Z,3.65
2023-01-17T22:18:52.055Z,3.38
2023-01-17T22:21:24.786Z,4.00
2023-01-17T22:23:56.931Z,6.00
2023-01-17T22:26:42.768Z,11.60
2023-01-17T22:29:11.452Z,9.48
2023-01-17T22:31:38.263Z,8.60
2023-01-17T22:34:05.340Z,9.20
2023-01-17T22:36:33.580Z,10.25
2023-01-17T22:39:01.187Z,10.10
2023-01-17T22:41:34.773Z,10.00
2023-01-17T22:44:02.553Z,8.00
2023-01-17T22:46:32.411Z,8.20
2023-01-17T22:49:00.687Z,7.05
2023-01-17T22:51:29.047Z,6.88
2023-01-17T22:53:58.028Z,6.93
2023-01-17T22:56:43.515Z,6.97
2023-01-17T22:59:11.853Z,6.22
2023-01-17T23:01:57.319Z,7.38
2023-01-17T23:04:24.098Z,8.18
2023-01-17T23:06:50.919Z,7.95
2023-01-17T23:09:18.021Z,6.68
2023-01-17T23:11:54.129Z,6.28
2023-01-17T23:14:22.350Z,6.32
2023-01-17T23:17:15.309Z,6.07
2023-01-17T23:19:51.148Z,6.18
2023-01-17T23:22:27.184Z,5.68
2023-01-17T23:24:56.622Z,5.03
2023-01-17T23:35:35.492Z,5.18
2023-01-17T23:38:21.753Z,4.70
2023-01-17T23:41:07.840Z,5.33
2023-01-17T23:43:36.554Z,4.88
2023-01-17T23:46:04.979Z,4.97
